createdAt,value
2022-09-20T00:00:43.609Z,97904.30
2022-09-20T00:03:11.326Z,97902.48
2022-09-20T00:05:39.559Z,97903.91
2022-09-20T00:08:08.108Z,97908.81
2022-09-20T00:10:39.638Z,97906.55
2022-09-20T00:13:07.760Z,97911.39
2022-09-20T00:15:34.857Z,97907.91
2022-09-20T00:18:01.920Z,97910.70
2022-09-20T00:20:28.949Z,97909.55
2022-09-20T00:22:56.006Z,97909.64
2022-09-20T00:25:23.147Z,97910.99
2022-09-20T00:27:50.192Z,97913.48
2022-09-20T00:30:17.446Z,97907.53
2022-09-20T00:32:44.392Z,97910.80
2022-09-20T00:35:11.746Z,97910.90
2022-09-20T00:37:40.497Z,97907.13
2022-09-20T00:40:20.760Z,97910.10
2022-09-20T00:42:48.453Z,97910.77
2022-09-20T00:45:26.658Z,97906.59
2022-09-20T00:47:59.868Z,97904.56
2022-09-20T00:50:33.558Z,97902.05
2022-09-20T00:53:16.908Z,97901.71
2022-09-20T00:55:45.875Z,97901.85
2022-09-20T00:58:13.240Z,97900.34
2022-09-20T01:00:40.378Z,97900.16
2022-09-20T01:03:09.063Z,97898.11
2022-09-20T01:05:36.213Z,97897.34
2022-09-20T01:08:03.271Z,97899.35
2022-09-20T01:10:30.518Z,97900.59
2022-09-20T01:12:57.667Z,97900.23
2022-09-20T01:15:24.712Z,97902.02
2022-09-20T01:17:52.782Z,97900.24
2022-09-20T01:20:23.118Z,97900.80
2022-09-20T01:23:28.056Z,97906.88
2022-09-20T01:26:13.926Z,97903.13
2022-09-20T01:28:42.513Z,97905.06
2022-09-20T01:31:26.794Z,97900.98
2022-09-20T01:34:00.985Z,97907.94
2022-09-20T01:36:50.552Z,97910.04
2022-09-20T01:39:41.989Z,97905.38
2022-09-20T01:42:10.553Z,97904.60
2022-09-20T01:44:59.720Z,97906.89
2022-09-20T01:47:39.078Z,97907.76
2022-09-20T01:50:15.138Z,97905.86
2022-09-20T01:53:09.806Z,97910.00
2022-09-20T01:55:55.388Z,97908.92
2022-09-20T01:58:26.534Z,97909.80
2022-09-20T02:01:27.914Z,97908.65
2022-09-20T02:04:25.855Z,97906.44
2022-09-20T02:07:15.256Z,97905.09
2022-09-20T02:09:54.566Z,97907.25
2022-09-20T02:12:36.971Z,97907.55
2022-09-20T02:15:31.673Z,97911.46
2022-09-20T02:18:14.480Z,97913.66
2022-09-20T02:20:50.749Z,97909.63
2022-09-20T02:23:49.947Z,97910.20
2022-09-20T02:26:46.310Z,97911.83
2022-09-20T02:29:13.635Z,97906.82
2022-09-20T02:32:06.740Z,97908.88
2022-09-20T02:34:56.079Z,97906.48
2022-09-20T02:37:55.364Z,97903.89
2022-09-20T02:40:37.806Z,97906.86
2022-09-20T02:43:23.352Z,97903.24
2022-09-20T02:46:22.778Z,97907.94
2022-09-20T02:49:17.557Z,97904.93
2022-09-20T02:52:07.544Z,97907.06
2022-09-20T02:54:46.977Z,97908.04
2022-09-20T02:57:45.285Z,97904.23
2022-09-20T03:00:27.383Z,97906.59
2022-09-20T03:02:57.587Z,97906.17
2022-09-20T03:05:36.812Z,97910.19
2022-09-20T03:08:30.481Z,97907.11
2022-09-20T03:11:12.889Z,97905.50
2022-09-20T03:13:58.595Z,97904.48
2022-09-20T03:16:49.918Z,97904.50
2022-09-20T03:19:34.264Z,97903.44
2022-09-20T03:22:20.030Z,97906.55
2022-09-20T03:25:02.363Z,97908.08
2022-09-20T03:27:36.549Z,97908.90
2022-09-20T03:33:59.251Z,97912.15
2022-09-20T03:36:34.284Z,97904.45
2022-09-20T03:39:39.736Z,97911.27
2022-09-20T03:46:11.585Z,97907.88
2022-09-20T03:49:26.900Z,97908.34
2022-09-20T03:52:18.273Z,97907.14
2022-09-20T03:55:14.440Z,97911.91
2022-09-20T03:57:53.129Z,97917.02
2022-09-20T04:00:23.870Z,97920.83
2022-09-20T04:03:12.713Z,97921.00
2022-09-20T04:05:52.789Z,97923.38
2022-09-20T04:08:25.968Z,97925.89
2022-09-20T04:11:16.044Z,97928.23
2022-09-20T04:13:54.690Z,97931.66
2022-09-20T04:16:51.126Z,97935.73
2022-09-20T04:19:30.856Z,97941.80
2022-09-20T04:22:00.859Z,97942.36
2022-09-20T04:24:53.404Z,97947.09
2022-09-20T04:27:35.711Z,97946.55
2022-09-20T04:30:30.401Z,97949.84
2022-09-20T04:33:04.514Z,97949.59
2022-09-20T04:36:09.654Z,97950.60
2022-09-20T04:38:37.420Z,97951.90
2022-09-20T04:41:28.454Z,97953.34
2022-09-20T04:44:25.272Z,97952.34
2022-09-20T04:47:19.456Z,97954.48
2022-09-20T04:50:11.235Z,97955.85
2022-09-20T04:53:09.563Z,97957.30
2022-09-20T04:55:50.606Z,97958.82
2022-09-20T04:58:29.777Z,97960.00
2022-09-20T05:01:19.975Z,97963.29
2022-09-20T05:04:28.786Z,97965.31
2022-09-20T05:07:20.408Z,97965.27
2022-09-20T05:09:47.473Z,97969.75
2022-09-20T05:12:56.077Z,97973.11
2022-09-20T05:16:01.427Z,97971.45
2022-09-20T05:18:47.948Z,97969.21
2022-09-20T05:21:18.399Z,97968.49
2022-09-20T05:23:56.664Z,97964.32
2022-09-20T05:26:39.276Z,97968.81
2022-09-20T05:29:25.886Z,97972.57
2022-09-20T05:32:02.342Z,97970.04
2022-09-20T05:35:13.012Z,97967.70
2022-09-20T05:38:04.656Z,97970.98
2022-09-20T05:40:53.292Z,97970.19
2022-09-20T05:43:29.046Z,97972.15
2022-09-20T05:46:22.283Z,97971.52
2022-09-20T05:48:58.571Z,97966.82
2022-09-20T05:51:46.136Z,97966.21
2022-09-20T05:54:13.150Z,97968.98
2022-09-20T05:56:40.298Z,97973.48
2022-09-20T05:59:22.808Z,97972.63
2022-09-20T06:02:15.778Z,97971.08
2022-09-20T06:05:04.821Z,97970.59
2022-09-20T06:07:41.369Z,97970.16
2022-09-20T06:10:43.568Z,97967.59
2022-09-20T06:13:23.104Z,97974.05
2022-09-20T06:16:02.505Z,97975.24
2022-09-20T06:18:43.642Z,97970.75
2022-09-20T06:21:19.779Z,97973.59
2022-09-20T06:23:47.073Z,97971.85
2022-09-20T06:26:17.597Z,97978.08
2022-09-20T06:28:58.226Z,97982.27
2022-09-20T06:31:30.745Z,97980.16
2022-09-20T06:34:04.911Z,97981.77
2022-09-20T06:36:55.721Z,97981.86
2022-09-20T06:39:53.050Z,97983.06
2022-09-20T06:42:22.441Z,97978.98
2022-09-20T06:44:53.210Z,97983.36
2022-09-20T06:50:27.854Z,97980.85
2022-09-20T06:52:55.414Z,97974.83
2022-09-20T06:55:29.295Z,97975.89
2022-09-20T06:58:01.029Z,97976.02
2022-09-20T07:00:37.133Z,97977.21
2022-09-20T07:03:04.901Z,97980.61
2022-09-20T07:05:31.877Z,97981.23
2022-09-20T07:08:21.035Z,97987.03
2022-09-20T07:10:48.681Z,97987.69
2022-09-20T07:13:15.891Z,97987.52
2022-09-20T07:15:45.367Z,97987.77
2022-09-20T07:18:12.850Z,97984.65
2022-09-20T07:20:42.022Z,97983.92
2022-09-20T07:23:09.188Z,97985.23
2022-09-20T07:25:36.931Z,97983.24
2022-09-20T07:28:04.082Z,97980.89
2022-09-20T07:30:31.128Z,97981.33
2022-09-20T07:32:58.220Z,97983.04
2022-09-20T07:35:25.457Z,97989.98
2022-09-20T07:38:02.408Z,97990.89
2022-09-20T07:40:29.512Z,97993.85
2022-09-20T07:42:57.923Z,97997.97
2022-09-20T07:45:25.902Z,98001.63
2022-09-20T07:47:53.776Z,98003.66
2022-09-20T07:50:20.838Z,98005.58
2022-09-20T07:52:47.863Z,98006.25
2022-09-20T07:55:15.134Z,98004.67
2022-09-20T08:00:12.484Z,98003.07
2022-09-20T08:02:40.012Z,98004.30
2022-09-20T08:05:07.714Z,98002.30
2022-09-20T08:07:34.674Z,98003.89
2022-09-20T08:10:01.910Z,98005.55
2022-09-20T08:15:19.277Z,98004.71
2022-09-20T08:17:48.134Z,98004.06
2022-09-20T08:20:15.692Z,98007.20
2022-09-20T08:22:43.663Z,98003.48
2022-09-20T08:25:10.719Z,98005.80
2022-09-20T08:27:37.761Z,98008.98
2022-09-20T08:30:05.228Z,98004.73
2022-09-20T08:32:33.176Z,98000.38
2022-09-20T08:35:00.231Z,97996.69
2022-09-20T08:37:27.375Z,97995.62
2022-09-20T08:39:58.436Z,97993.32
2022-09-20T08:42:43.715Z,97994.38
2022-09-20T08:45:34.477Z,97995.07
2022-09-20T08:48:06.004Z,97992.02
2022-09-20T08:50:34.842Z,97991.90
2022-09-20T08:53:05.261Z,97990.44
2022-09-20T08:55:39.978Z,97989.19
2022-09-20T08:58:09.814Z,97987.06
2022-09-20T09:00:37.369Z,97987.73
2022-09-20T09:03:06.618Z,97984.45
2022-09-20T09:05:39.173Z,97980.70
2022-09-20T09:08:16.873Z,97978.70
2022-09-20T09:10:55.015Z,97977.39
2022-09-20T09:13:53.103Z,97974.73
2022-09-20T09:16:27.201Z,97974.23
2022-09-20T09:18:58.062Z,97973.85
2022-09-20T09:21:29.522Z,97969.48
2022-09-20T09:24:12.737Z,97969.92
2022-09-20T09:26:46.966Z,97971.07
2022-09-20T09:29:17.073Z,97965.65
2022-09-20T09:31:48.581Z,97967.11
2022-09-20T09:34:29.661Z,97964.98
2022-09-20T09:36:57.486Z,97964.50
2022-09-20T09:39:28.444Z,97958.03
2022-09-20T09:41:55.554Z,97956.86
2022-09-20T09:44:34.170Z,97953.44
2022-09-20T09:47:01.542Z,97950.70
2022-09-20T09:49:36.486Z,97948.64
2022-09-20T09:52:03.813Z,97949.13
2022-09-20T09:54:37.521Z,97950.17
2022-09-20T09:57:08.554Z,97952.12
2022-09-20T10:00:21.843Z,97949.09
2022-09-20T10:03:17.609Z,97951.69
2022-09-20T10:05:53.971Z,97953.46
2022-09-20T10:08:42.938Z,97950.09
2022-09-20T10:11:22.500Z,97949.96
2022-09-20T10:13:59.061Z,97953.37
2022-09-20T10:16:44.874Z,97958.94
2022-09-20T10:19:40.857Z,97966.38
2022-09-20T10:22:11.362Z,97965.48
2022-09-20T10:24:41.302Z,97967.54
2022-09-20T10:27:26.679Z,97969.75
2022-09-20T10:30:11.028Z,97968.27
2022-09-20T10:32:46.371Z,97966.22
2022-09-20T10:35:23.861Z,97972.02
2022-09-20T10:38:09.860Z,97962.20
2022-09-20T10:41:33.894Z,97963.20
2022-09-20T10:44:13.578Z,97958.97
2022-09-20T10:46:51.830Z,97955.72
2022-09-20T10:51:14.321Z,97955.36
2022-09-20T10:53:34.704Z,97952.92
2022-09-20T10:56:25.950Z,97952.20
2022-09-20T10:59:09.079Z,97953.51
2022-09-20T11:01:59.324Z,97952.95
2022-09-20T11:04:42.085Z,97953.30
2022-09-20T11:07:34.112Z,97952.13
2022-09-20T11:10:18.774Z,97947.98
2022-09-20T11:13:16.850Z,97953.36
2022-09-20T11:15:56.152Z,97956.84
2022-09-20T11:18:24.977Z,97959.05
2022-09-20T11:21:09.570Z,97957.52
2022-09-20T11:23:59.461Z,97956.98
2022-09-20T11:26:41.041Z,97955.96
2022-09-20T11:29:37.277Z,97958.74
2022-09-20T11:32:28.306Z,97960.06
2022-09-20T11:34:57.360Z,97957.85
2022-09-20T11:37:28.683Z,97959.81
2022-09-20T11:39:56.146Z,97962.59
2022-09-20T11:42:34.465Z,97958.31
2022-09-20T11:45:07.292Z,97958.01
2022-09-20T11:47:55.484Z,97955.27
2022-09-20T11:50:38.520Z,97954.21
2022-09-20T11:53:36.786Z,97951.80
2022-09-20T11:56:16.784Z,97949.59
2022-09-20T11:58:51.177Z,97954.31
2022-09-20T12:01:31.023Z,97958.02
2022-09-20T12:04:32.947Z,97969.17
2022-09-20T12:07:27.354Z,97985.53
2022-09-20T12:09:56.953Z,97986.14
2022-09-20T12:12:39.770Z,97985.95
2022-09-20T12:15:27.729Z,97988.80
2022-09-20T12:17:57.723Z,97990.06
2022-09-20T12:20:38.896Z,97983.36
2022-09-20T12:23:41.380Z,97990.21
2022-09-20T12:26:15.494Z,97986.55
2022-09-20T12:28:44.840Z,97982.64
2022-09-20T12:31:31.154Z,97977.77
2022-09-20T12:34:02.210Z,97973.35
2022-09-20T12:36:55.704Z,97970.88
2022-09-20T12:39:30.562Z,97971.63
2022-09-20T12:42:07.963Z,97968.58
2022-09-20T12:44:42.031Z,97960.34
2022-09-20T12:47:12.113Z,97956.71
2022-09-20T12:50:07.047Z,97957.16
2022-09-20T12:52:56.059Z,97956.10
2022-09-20T12:55:42.614Z,97955.31
2022-09-20T12:58:15.432Z,97960.19
2022-09-20T13:00:59.334Z,97960.85
2022-09-20T13:03:27.298Z,97952.56
2022-09-20T13:06:09.441Z,97956.39
2022-09-20T13:08:48.109Z,97949.43
2022-09-20T13:11:19.300Z,97954.85
2022-09-20T13:13:55.251Z,97959.22
2022-09-20T13:16:24.740Z,97952.52
2022-09-20T13:22:26.189Z,97952.78
2022-09-20T13:35:51.975Z,97952.80
2022-09-20T13:38:35.055Z,97950.18
2022-09-20T13:41:10.064Z,97948.77
2022-09-20T13:43:41.525Z,97951.21
2022-09-20T13:46:13.787Z,97953.39
2022-09-20T13:48:41.088Z,97954.21
2022-09-20T13:51:25.176Z,97954.63
2022-09-20T13:54:00.097Z,97957.52
2022-09-20T13:56:28.660Z,97961.65
2022-09-20T13:58:59.043Z,97962.33
2022-09-20T14:01:31.158Z,97961.39
2022-09-20T14:04:05.479Z,97964.50
2022-09-20T14:06:32.414Z,97959.05
2022-09-20T14:09:00.075Z,97959.17
2022-09-20T14:11:31.174Z,97958.61
2022-09-20T14:13:58.795Z,97962.81
2022-09-20T14:16:31.172Z,97966.05
2022-09-20T14:18:58.878Z,97961.63
2022-09-20T14:21:31.846Z,97964.45
2022-09-20T14:24:02.401Z,97968.81
2022-09-20T14:26:30.894Z,97963.27
2022-09-20T14:28:57.868Z,97965.38
2022-09-20T14:31:29.018Z,97969.77
2022-09-20T14:33:58.080Z,97975.26
2022-09-20T14:36:27.524Z,97975.80
2022-09-20T14:38:56.260Z,97980.81
2022-09-20T14:41:36.424Z,97992.34
2022-09-20T14:44:03.622Z,97995.27
2022-09-20T14:46:36.090Z,97999.54
2022-09-20T14:49:43.246Z,98001.69
2022-09-20T14:52:36.533Z,98005.99
2022-09-20T14:55:16.562Z,98002.45
2022-09-20T14:57:43.641Z,98007.11
2022-09-20T15:00:15.511Z,98009.23
2022-09-20T15:02:43.685Z,98011.58
2022-09-20T15:05:27.016Z,98011.29
2022-09-20T15:07:54.597Z,98014.89
2022-09-20T15:10:22.349Z,98021.84
2022-09-20T15:12:49.381Z,98027.88
2022-09-20T15:15:20.170Z,98028.77
2022-09-20T15:17:47.253Z,98028.65
2022-09-20T15:20:20.602Z,98029.77
2022-09-20T15:22:50.422Z,98030.73
2022-09-20T15:25:19.228Z,98034.11
2022-09-20T15:27:46.913Z,98035.80
2022-09-20T15:30:16.507Z,98031.06
2022-09-20T15:32:44.716Z,98042.34
2022-09-20T15:35:12.159Z,98038.35
2022-09-20T15:37:39.066Z,98044.98
2022-09-20T15:40:07.003Z,98049.75
2022-09-20T15:42:38.056Z,98051.55
2022-09-20T15:45:09.566Z,98051.86
2022-09-20T15:47:37.696Z,98052.52
2022-09-20T15:50:07.582Z,98048.48
2022-09-20T15:52:38.495Z,98049.33
2022-09-20T15:55:06.221Z,98054.47
2022-09-20T15:57:34.217Z,98059.86
2022-09-20T16:00:01.464Z,98060.75
2022-09-20T16:02:35.321Z,98065.06
2022-09-20T16:05:04.946Z,98066.10
2022-09-20T16:07:31.910Z,98067.23
2022-09-20T16:09:58.873Z,98075.35
2022-09-20T16:12:25.926Z,98075.38
2022-09-20T16:14:52.836Z,98078.03
2022-09-20T16:17:42.105Z,98082.42
2022-09-20T16:20:09.476Z,98082.27
2022-09-20T16:22:36.424Z,98083.16
2022-09-20T16:25:06.050Z,98085.59
2022-09-20T16:27:35.013Z,98086.73
2022-09-20T16:30:02.945Z,98090.04
2022-09-20T16:32:29.972Z,98087.61
2022-09-20T16:34:59.343Z,98091.77
2022-09-20T16:37:32.933Z,98092.70
2022-09-20T16:40:00.600Z,98096.88
2022-09-20T16:42:27.620Z,98099.38
2022-09-20T16:44:54.579Z,98101.33
2022-09-20T16:47:25.115Z,98104.63
2022-09-20T16:49:53.193Z,98102.77
2022-09-20T16:52:20.174Z,98107.36
2022-09-20T16:54:49.945Z,98115.23
2022-09-20T16:57:17.017Z,98114.52
2022-09-20T16:59:44.444Z,98113.59
2022-09-20T17:02:12.296Z,98115.65
2022-09-20T17:04:39.355Z,98115.73
2022-09-20T17:07:06.781Z,98116.60
2022-09-20T17:09:33.760Z,98122.95
2022-09-20T17:12:01.444Z,98126.34
2022-09-20T17:14:28.417Z,98124.70
2022-09-20T17:16:56.825Z,98124.10
2022-09-20T17:19:28.255Z,98128.93
2022-09-20T17:22:07.419Z,98130.43
2022-09-20T17:24:34.392Z,98129.05
2022-09-20T17:27:01.846Z,98130.32
2022-09-20T17:29:28.865Z,98130.83
2022-09-20T17:31:59.774Z,98134.06
2022-09-20T17:34:32.370Z,98130.45
2022-09-20T17:37:03.567Z,98136.02
2022-09-20T17:39:30.594Z,98135.80
2022-09-20T17:41:57.611Z,98137.95
2022-09-20T17:44:24.689Z,98140.45
2022-09-20T17:46:54.148Z,98138.17
2022-09-20T17:49:22.165Z,98135.95
2022-09-20T17:51:50.912Z,98138.34
2022-09-20T17:54:18.607Z,98136.66
2022-09-20T17:56:47.963Z,98142.59
2022-09-20T17:59:18.416Z,98142.98
2022-09-20T18:01:47.064Z,98149.02
2022-09-20T18:04:14.171Z,98148.54
2022-09-20T18:06:44.731Z,98150.54
2022-09-20T18:09:14.310Z,98149.98
2022-09-20T18:11:44.216Z,98153.47
2022-09-20T18:14:11.209Z,98153.73
2022-09-20T18:16:38.943Z,98156.99
2022-09-20T18:19:06.932Z,98154.85
2022-09-20T18:21:35.627Z,98160.49
2022-09-20T18:24:05.128Z,98165.61
2022-09-20T18:26:32.844Z,98164.94
2022-09-20T18:29:12.979Z,98163.50
2022-09-20T18:31:45.348Z,98166.40
2022-09-20T18:34:34.072Z,98164.79
2022-09-20T18:37:04.966Z,98168.03
2022-09-20T18:39:33.280Z,98168.48
2022-09-20T18:42:02.400Z,98167.20
2022-09-20T18:44:34.133Z,98169.56
2022-09-20T18:47:05.908Z,98165.75
2022-09-20T18:49:33.513Z,98163.48
2022-09-20T18:52:00.657Z,98167.79
2022-09-20T18:54:32.068Z,98167.70
2022-09-20T18:56:59.448Z,98167.83
2022-09-20T18:59:27.259Z,98166.09
2022-09-20T19:01:54.524Z,98170.20
2022-09-20T19:04:58.578Z,98170.59
2022-09-20T19:07:28.751Z,98168.50
2022-09-20T19:10:26.619Z,98166.46
2022-09-20T19:13:05.202Z,98170.88
2022-09-20T19:15:56.503Z,98170.31
2022-09-20T19:18:45.299Z,98165.71
2022-09-20T19:21:40.689Z,98162.27
2022-09-20T19:24:28.955Z,98160.40
2022-09-20T19:26:56.047Z,98159.04
2022-09-20T19:29:25.354Z,98156.18
2022-09-20T19:31:57.031Z,98156.39
2022-09-20T19:34:25.922Z,98161.07
2022-09-20T19:37:12.295Z,98161.80
2022-09-20T19:39:49.582Z,98161.25
2022-09-20T19:42:49.197Z,98161.02
2022-09-20T19:45:25.502Z,98165.60
2022-09-20T19:48:02.145Z,98170.10
2022-09-20T19:50:47.993Z,98168.07
2022-09-20T19:53:17.083Z,98168.56
2022-09-20T19:55:59.970Z,98165.64
2022-09-20T19:58:27.216Z,98169.83
2022-09-20T20:00:54.673Z,98163.54
2022-09-20T20:03:26.599Z,98167.04
2022-09-20T20:06:16.971Z,98163.77
2022-09-20T20:09:15.185Z,98164.13
2022-09-20T20:11:58.288Z,98162.67
2022-09-20T20:17:57.726Z,98165.93
2022-09-20T20:20:41.355Z,98168.55
2022-09-20T20:23:39.975Z,98166.98
2022-09-20T20:26:17.503Z,98163.70
2022-09-20T20:28:44.614Z,98161.46
2022-09-20T20:31:12.651Z,98159.77
2022-09-20T20:33:39.938Z,98161.69
2022-09-20T20:36:09.574Z,98162.65
2022-09-20T20:38:43.012Z,98161.23
2022-09-20T20:41:12.000Z,98160.65
2022-09-20T20:43:41.106Z,98164.80
2022-09-20T20:46:14.508Z,98164.30
2022-09-20T20:48:42.085Z,98172.27
2022-09-20T20:51:13.764Z,98170.38
2022-09-20T20:53:45.196Z,98170.08
2022-09-20T20:56:14.376Z,98172.19
2022-09-20T20:58:54.860Z,98176.15
2022-09-20T21:01:39.033Z,98179.44
2022-09-20T21:04:11.913Z,98180.55
2022-09-20T21:06:47.728Z,98184.32
2022-09-20T21:09:21.039Z,98182.95
2022-09-20T21:11:50.624Z,98181.58
2022-09-20T21:14:35.300Z,98181.88
2022-09-20T21:17:05.209Z,98188.36
2022-09-20T21:19:33.093Z,98190.59
2022-09-20T21:22:00.228Z,98191.89
2022-09-20T21:24:27.384Z,98192.17
2022-09-20T21:26:54.430Z,98191.85
2022-09-20T21:29:21.577Z,98189.18
2022-09-20T21:31:52.476Z,98188.92
2022-09-20T21:34:19.559Z,98186.81
2022-09-20T21:36:46.675Z,98187.45
2022-09-20T21:39:13.758Z,98185.72
2022-09-20T21:41:41.120Z,98185.77
2022-09-20T21:44:10.105Z,98187.51
2022-09-20T21:46:40.193Z,98186.30
2022-09-20T21:49:11.795Z,98192.17
2022-09-20T21:51:39.455Z,98188.77
2022-09-20T21:54:06.620Z,98190.13
2022-09-20T21:56:36.103Z,98188.52
2022-09-20T21:59:04.569Z,98191.58
2022-09-20T22:01:36.507Z,98190.45
2022-09-20T22:04:06.114Z,98187.23
2022-09-20T22:06:35.106Z,98189.02
2022-09-20T22:09:10.173Z,98190.48
2022-09-20T22:11:39.439Z,98192.60
2022-09-20T22:14:06.715Z,98187.05
2022-09-20T22:16:40.979Z,98187.89
2022-09-20T22:19:11.321Z,98185.16
2022-09-20T22:24:50.955Z,98190.69
2022-09-20T22:27:26.688Z,98195.36
2022-09-20T22:30:00.397Z,98194.83
2022-09-20T22:32:31.211Z,98197.27
2022-09-20T22:34:59.732Z,98195.02
2022-09-20T22:37:26.739Z,98194.19
2022-09-20T22:39:53.785Z,98199.02
2022-09-20T22:42:20.835Z,98196.45
2022-09-20T22:44:47.874Z,98200.48
2022-09-20T22:47:15.032Z,98198.33
2022-09-20T22:49:42.009Z,98197.82
2022-09-20T22:52:09.127Z,98198.36
2022-09-20T22:54:36.207Z,98197.95
2022-09-20T22:57:03.320Z,98198.13
2022-09-20T22:59:30.389Z,98197.03
2022-09-20T23:01:58.032Z,98198.81
2022-09-20T23:04:25.092Z,98197.69
2022-09-20T23:06:55.225Z,98199.76
2022-09-20T23:09:24.193Z,98198.58
2022-09-20T23:11:51.348Z,98198.52
2022-09-20T23:14:20.028Z,98199.02
2022-09-20T23:16:47.526Z,98199.12
2022-09-20T23:19:14.733Z,98196.84
2022-09-20T23:21:42.599Z,98195.60
2022-09-20T23:24:10.976Z,98194.94
2022-09-20T23:26:38.648Z,98195.64
2022-09-20T23:29:12.565Z,98195.66
2022-09-20T23:31:41.243Z,98194.83
2022-09-20T23:34:08.597Z,98191.37
2022-09-20T23:36:37.274Z,98190.21
2022-09-20T23:39:05.655Z,98195.14
2022-09-20T23:41:32.799Z,98195.30
2022-09-20T23:43:59.871Z,98194.27
2022-09-20T23:46:27.103Z,98197.95
2022-09-20T23:48:54.461Z,98199.13
2022-09-20T23:51:23.593Z,98194.29
2022-09-20T23:53:51.641Z,98192.11
2022-09-20T23:56:18.932Z,98186.07
2022-09-20T23:58:46.019Z,98184.23
